createdAt,value
2018-09-11T00:02:15.971Z,14.10
2018-09-11T00:04:44.399Z,14.10
2018-09-11T00:07:13.143Z,14.10
2018-09-11T00:09:41.538Z,14.10
2018-09-11T00:12:10.432Z,14.10
2018-09-11T00:14:38.857Z,14.10
2018-09-11T00:17:08.302Z,14.10
2018-09-11T00:19:36.621Z,14.00
2018-09-11T00:22:05.307Z,14.00
2018-09-11T00:24:33.625Z,14.00
2018-09-11T00:27:22.726Z,14.00
2018-09-11T00:29:51.090Z,14.00
2018-09-11T00:32:19.470Z,13.90
2018-09-11T00:34:47.839Z,13.90
2018-09-11T00:37:16.186Z,13.90
2018-09-11T00:39:44.754Z,13.90
2018-09-11T00:42:13.126Z,13.80
2018-09-11T00:44:41.516Z,13.80
2018-09-11T00:47:09.803Z,13.80
2018-09-11T00:49:38.385Z,13.70
2018-09-11T00:52:07.024Z,13.60
2018-09-11T00:54:35.691Z,13.60
2018-09-11T00:57:03.982Z,13.60
2018-09-11T00:59:32.289Z,13.60
2018-09-11T01:02:00.912Z,13.50
2018-09-11T01:04:29.238Z,13.50
2018-09-11T01:09:31.244Z,13.40
2018-09-11T01:11:59.569Z,13.40
2018-09-11T01:14:27.914Z,13.40
2018-09-11T01:16:56.225Z,13.40
2018-09-11T01:19:24.668Z,13.40
2018-09-11T01:21:53.062Z,13.30
2018-09-11T01:24:21.375Z,13.30
2018-09-11T01:26:49.705Z,13.30
2018-09-11T01:29:18.258Z,13.20
2018-09-11T01:31:46.616Z,13.20
2018-09-11T01:34:14.952Z,13.20
2018-09-11T01:36:43.325Z,13.20
2018-09-11T01:39:12.963Z,13.10
2018-09-11T01:41:41.489Z,13.10
2018-09-11T01:44:10.326Z,13.10
2018-09-11T01:46:38.685Z,13.10
2018-09-11T01:49:07.193Z,13.10
2018-09-11T01:51:35.540Z,13.10
2018-09-11T01:54:03.950Z,13.00
2018-09-11T01:56:32.312Z,13.00
2018-09-11T01:59:00.725Z,13.00
2018-09-11T02:01:29.076Z,12.90
2018-09-11T02:03:57.522Z,12.90
2018-09-11T02:06:25.933Z,12.90
2018-09-11T02:08:54.209Z,12.90
2018-09-11T02:11:22.522Z,12.80
2018-09-11T02:13:51.671Z,12.80
2018-09-11T02:16:20.126Z,12.80
2018-09-11T02:18:48.477Z,12.80
2018-09-11T02:21:17.140Z,12.80
2018-09-11T02:23:45.449Z,12.70
2018-09-11T02:26:13.892Z,12.70
2018-09-11T02:28:42.322Z,12.70
2018-09-11T02:31:10.716Z,12.70
2018-09-11T02:33:39.032Z,12.70
2018-09-11T02:36:07.566Z,12.70
2018-09-11T02:38:35.946Z,12.80
2018-09-11T02:41:04.210Z,12.80
2018-09-11T02:43:32.662Z,12.80
2018-09-11T02:46:01.310Z,12.80
2018-09-11T02:48:29.666Z,12.80
2018-09-11T02:50:58.130Z,12.80
2018-09-11T02:53:26.581Z,12.80
2018-09-11T02:55:55.477Z,12.80
2018-09-11T02:58:24.287Z,12.80
2018-09-11T03:00:52.724Z,12.80
2018-09-11T03:03:21.100Z,12.80
2018-09-11T03:05:55.580Z,12.80
2018-09-11T03:08:23.900Z,12.80
2018-09-11T03:10:52.246Z,12.80
2018-09-11T03:13:20.973Z,12.80
2018-09-11T03:15:49.288Z,12.80
2018-09-11T03:18:17.762Z,12.80
2018-09-11T03:20:46.095Z,12.80
2018-09-11T03:23:14.365Z,12.80
2018-09-11T03:25:42.713Z,12.80
2018-09-11T03:28:11.048Z,12.70
2018-09-11T03:30:39.426Z,12.70
2018-09-11T03:33:07.795Z,12.70
2018-09-11T03:35:36.231Z,12.70
2018-09-11T03:38:04.799Z,12.60
2018-09-11T03:40:33.148Z,12.60
2018-09-11T03:43:01.552Z,12.60
2018-09-11T03:45:29.944Z,12.60
2018-09-11T03:47:58.279Z,12.60
2018-09-11T03:50:26.616Z,12.60
2018-09-11T03:52:55.006Z,12.50
2018-09-11T03:55:23.442Z,12.50
2018-09-11T03:57:51.741Z,12.50
2018-09-11T04:00:20.094Z,12.50
2018-09-11T04:02:49.506Z,12.50
2018-09-11T04:05:18.045Z,12.40
2018-09-11T04:07:46.380Z,12.40
2018-09-11T04:10:19.587Z,12.40
2018-09-11T04:12:47.978Z,12.40
2018-09-11T04:15:16.466Z,12.40
2018-09-11T04:17:45.120Z,12.40
2018-09-11T04:20:13.455Z,12.40
2018-09-11T04:22:41.837Z,12.40
2018-09-11T04:25:10.179Z,12.40
2018-09-11T04:27:38.519Z,12.40
2018-09-11T04:30:06.887Z,12.40
2018-09-11T04:32:35.334Z,12.40
2018-09-11T04:35:03.655Z,12.40
2018-09-11T04:37:31.994Z,12.40
2018-09-11T04:40:00.270Z,12.40
2018-09-11T04:42:28.677Z,12.40
2018-09-11T04:44:56.945Z,12.40
2018-09-11T04:47:25.372Z,12.40
2018-09-11T04:49:53.742Z,12.50
2018-09-11T04:52:22.229Z,12.50
2018-09-11T04:54:50.577Z,12.50
2018-09-11T04:57:23.792Z,12.50
2018-09-11T04:59:52.184Z,12.60
2018-09-11T05:02:20.557Z,12.60
2018-09-11T05:04:49.329Z,12.70
2018-09-11T05:07:19.080Z,12.70
2018-09-11T05:09:47.390Z,12.70
2018-09-11T05:12:15.796Z,12.70
2018-09-11T05:14:44.118Z,12.80
2018-09-11T05:17:12.453Z,12.80
2018-09-11T05:19:40.902Z,12.80
2018-09-11T05:22:09.179Z,12.90
2018-09-11T05:24:37.598Z,12.90
2018-09-11T05:27:05.863Z,12.90
2018-09-11T05:29:34.199Z,12.90
2018-09-11T05:32:02.565Z,12.90
2018-09-11T05:34:30.928Z,13.00
2018-09-11T05:36:59.326Z,13.00
2018-09-11T05:39:27.706Z,13.10
2018-09-11T05:41:55.967Z,13.10
2018-09-11T05:44:24.314Z,13.20
2018-09-11T05:46:52.621Z,13.20
2018-09-11T05:49:21.037Z,13.30
2018-09-11T05:51:49.408Z,13.30
2018-09-11T05:54:17.867Z,13.40
2018-09-11T05:56:46.166Z,13.40
2018-09-11T05:59:14.611Z,13.50
2018-09-11T06:01:43.071Z,13.50
2018-09-11T06:04:11.391Z,13.50
2018-09-11T06:06:39.858Z,13.50
2018-09-11T06:09:09.605Z,13.60
2018-09-11T06:11:37.998Z,13.60
2018-09-11T06:14:06.386Z,13.70
2018-09-11T06:16:34.755Z,13.70
2018-09-11T06:19:03.090Z,13.70
2018-09-11T06:21:31.599Z,13.70
2018-09-11T06:24:00.065Z,13.80
2018-09-11T06:26:28.468Z,13.80
2018-09-11T06:28:57.369Z,13.80
2018-09-11T06:31:25.727Z,13.80
2018-09-11T06:33:54.057Z,13.90
2018-09-11T06:36:22.664Z,13.90
2018-09-11T06:38:51.018Z,13.90
2018-09-11T06:41:19.578Z,14.00
2018-09-11T06:43:47.991Z,14.00
2018-09-11T06:46:16.413Z,14.00
2018-09-11T06:48:44.729Z,14.10
2018-09-11T06:51:13.242Z,14.10
2018-09-11T06:53:41.485Z,14.20
2018-09-11T06:56:09.826Z,14.20
2018-09-11T06:58:38.229Z,14.20
2018-09-11T07:01:06.623Z,14.30
2018-09-11T07:03:35.003Z,14.40
2018-09-11T07:06:05.418Z,14.50
2018-09-11T07:08:33.876Z,14.60
2018-09-11T07:11:02.757Z,14.70
2018-09-11T07:13:31.018Z,14.80
2018-09-11T07:15:59.340Z,14.90
2018-09-11T07:18:27.979Z,15.00
2018-09-11T07:20:56.460Z,15.10
2018-09-11T07:23:25.301Z,15.20
2018-09-11T07:25:54.031Z,15.30
2018-09-11T07:28:22.429Z,15.40
2018-09-11T07:30:52.393Z,15.50
2018-09-11T07:33:22.369Z,15.60
2018-09-11T07:35:50.772Z,15.60
2018-09-11T07:38:20.270Z,15.70
2018-09-11T07:40:48.758Z,15.70
2018-09-11T07:43:17.016Z,15.80
2018-09-11T07:45:45.343Z,15.90
2018-09-11T07:48:13.813Z,15.90
2018-09-11T07:50:42.197Z,16.00
2018-09-11T07:53:11.024Z,16.10
2018-09-11T07:55:39.659Z,16.20
2018-09-11T07:58:08.524Z,16.20
2018-09-11T08:00:37.034Z,16.30
2018-09-11T08:03:05.494Z,16.30
2018-09-11T08:05:33.889Z,16.40
2018-09-11T08:08:02.494Z,16.50
2018-09-11T08:10:30.936Z,16.50
2018-09-11T08:12:59.285Z,16.60
2018-09-11T08:15:27.994Z,16.70
2018-09-11T08:17:57.105Z,16.80
2018-09-11T08:20:25.722Z,16.90
2018-09-11T08:22:56.137Z,16.90
2018-09-11T08:25:25.088Z,17.00
2018-09-11T08:27:53.638Z,17.00
2018-09-11T08:30:22.137Z,17.10
2018-09-11T08:32:51.925Z,17.20
2018-09-11T08:35:20.329Z,17.20
2018-09-11T08:37:49.202Z,17.30
2018-09-11T08:40:17.767Z,17.30
2018-09-11T08:42:46.680Z,17.50
2018-09-11T08:45:17.499Z,17.60
2018-09-11T08:47:46.337Z,17.70
2018-09-11T08:53:16.820Z,17.80
2018-09-11T08:55:45.424Z,17.90
2018-09-11T08:58:14.094Z,18.00
2018-09-11T09:00:42.895Z,18.10
2018-09-11T09:03:11.504Z,18.20
2018-09-11T09:05:39.893Z,18.30
2018-09-11T09:08:09.820Z,18.40
2018-09-11T09:10:38.236Z,18.50
2018-09-11T09:13:06.647Z,18.60
2018-09-11T09:15:35.254Z,18.70
2018-09-11T09:18:04.214Z,18.80
2018-09-11T09:20:32.859Z,18.90
2018-09-11T09:23:01.209Z,19.00
2018-09-11T09:25:29.534Z,19.10
2018-09-11T09:27:58.620Z,19.20
2018-09-11T09:30:26.967Z,19.30
2018-09-11T09:32:55.780Z,19.40
2018-09-11T09:35:24.559Z,19.50
2018-09-11T09:37:52.818Z,19.70
2018-09-11T09:40:21.217Z,19.80
2018-09-11T09:42:49.829Z,19.80
2018-09-11T09:45:18.195Z,20.00
2018-09-11T09:47:46.593Z,20.00
2018-09-11T09:50:14.885Z,20.10
2018-09-11T09:52:43.177Z,20.20
2018-09-11T09:55:11.448Z,20.30
2018-09-11T09:57:39.750Z,20.40
2018-09-11T10:00:08.144Z,20.40
2018-09-11T10:02:36.373Z,20.50
2018-09-11T10:05:04.626Z,20.60
2018-09-11T10:07:32.996Z,20.70
2018-09-11T10:10:01.310Z,20.80
2018-09-11T10:12:29.567Z,20.90
2018-09-11T10:14:57.865Z,20.90
2018-09-11T10:17:26.244Z,21.00
2018-09-11T10:19:55.311Z,21.20
2018-09-11T10:22:23.608Z,21.30
2018-09-11T10:24:52.233Z,21.50
2018-09-11T10:27:21.484Z,21.60
2018-09-11T10:29:49.872Z,21.70
2018-09-11T10:32:18.580Z,21.70
2018-09-11T10:34:46.910Z,21.80
2018-09-11T10:37:15.183Z,21.80
2018-09-11T10:39:43.885Z,21.80
2018-09-11T10:42:12.490Z,21.90
2018-09-11T10:44:40.785Z,22.10
2018-09-11T10:47:09.672Z,22.20
2018-09-11T10:49:37.971Z,22.30
2018-09-11T10:52:06.675Z,22.40
2018-09-11T10:54:35.008Z,22.50
2018-09-11T10:57:03.367Z,22.60
2018-09-11T10:59:31.936Z,22.80
2018-09-11T11:02:00.258Z,22.90
2018-09-11T11:04:28.597Z,23.00
2018-09-11T11:06:57.000Z,23.00
2018-09-11T11:09:25.276Z,23.20
2018-09-11T11:11:53.613Z,23.30
2018-09-11T11:14:21.877Z,23.40
2018-09-11T11:16:50.230Z,23.50
2018-09-11T11:19:18.454Z,23.60
2018-09-11T11:21:46.857Z,23.60
2018-09-11T11:24:15.206Z,23.70
2018-09-11T11:26:43.575Z,23.80
2018-09-11T11:29:11.802Z,23.90
2018-09-11T11:31:40.143Z,24.00
2018-09-11T11:34:08.556Z,24.00
2018-09-11T11:36:37.179Z,24.10
2018-09-11T11:39:08.133Z,24.10
2018-09-11T11:41:36.852Z,24.10
2018-09-11T11:44:05.092Z,24.10
2018-09-11T11:46:33.470Z,24.20
2018-09-11T11:49:01.833Z,24.20
2018-09-11T11:51:30.115Z,24.30
2018-09-11T11:53:58.410Z,24.30
2018-09-11T11:56:26.807Z,24.40
2018-09-11T11:58:55.416Z,24.40
2018-09-11T12:01:23.854Z,24.50
2018-09-11T12:03:52.114Z,24.50
2018-09-11T12:06:20.809Z,24.60
2018-09-11T12:08:49.137Z,24.70
2018-09-11T12:11:17.442Z,24.80
2018-09-11T12:13:45.836Z,24.90
2018-09-11T12:16:14.197Z,24.90
2018-09-11T12:19:03.858Z,25.00
2018-09-11T12:21:32.182Z,25.00
2018-09-11T12:24:00.499Z,25.00
2018-09-11T12:26:28.777Z,25.10
2018-09-11T12:29:04.342Z,25.10
2018-09-11T12:31:32.629Z,25.20
2018-09-11T12:34:02.441Z,25.20
2018-09-11T12:36:30.736Z,25.30
2018-09-11T12:38:59.395Z,25.40
2018-09-11T12:41:27.746Z,25.40
2018-09-11T12:43:56.259Z,25.50
2018-09-11T12:46:25.033Z,25.50
2018-09-11T12:48:54.245Z,25.50
2018-09-11T12:51:22.501Z,25.50
2018-09-11T12:53:50.842Z,25.60
2018-09-11T12:56:20.404Z,25.60
2018-09-11T12:58:49.174Z,25.60
2018-09-11T13:01:32.450Z,25.60
2018-09-11T13:04:00.871Z,25.60
2018-09-11T13:06:29.494Z,25.70
2018-09-11T13:08:57.978Z,25.80
2018-09-11T13:11:26.256Z,25.80
2018-09-11T13:13:54.521Z,25.80
2018-09-11T13:16:22.963Z,25.90
2018-09-11T13:18:51.174Z,26.00
2018-09-11T13:21:19.600Z,26.00
2018-09-11T13:23:47.851Z,26.00
2018-09-11T13:26:16.171Z,26.00
2018-09-11T13:28:44.914Z,26.00
2018-09-11T13:31:13.477Z,26.10
2018-09-11T13:33:41.730Z,26.10
2018-09-11T13:36:10.751Z,26.10
2018-09-11T13:38:39.337Z,26.20
2018-09-11T13:41:07.839Z,26.20
2018-09-11T13:43:36.079Z,26.30
2018-09-11T13:46:10.808Z,26.30
2018-09-11T13:48:39.176Z,26.30
2018-09-11T13:51:07.410Z,26.40
2018-09-11T13:53:35.880Z,26.40
2018-09-11T13:56:04.241Z,26.40
2018-09-11T13:58:37.327Z,26.50
2018-09-11T14:01:05.898Z,26.60
2018-09-11T14:03:34.330Z,26.60
2018-09-11T14:06:02.565Z,26.60
2018-09-11T14:08:30.994Z,26.60
2018-09-11T14:10:59.264Z,26.70
2018-09-11T14:13:27.593Z,26.70
2018-09-11T14:15:56.045Z,26.80
2018-09-11T14:18:24.264Z,26.80
2018-09-11T14:20:52.504Z,26.80
2018-09-11T14:23:20.911Z,26.90
2018-09-11T14:25:49.166Z,26.90
2018-09-11T14:28:17.812Z,26.90
2018-09-11T14:30:46.527Z,26.90
2018-09-11T14:33:14.732Z,26.90
2018-09-11T14:35:42.968Z,26.90
2018-09-11T14:38:11.638Z,26.80
2018-09-11T14:40:39.888Z,26.80
2018-09-11T14:43:08.639Z,26.80
2018-09-11T14:45:36.883Z,26.80
2018-09-11T14:48:05.574Z,26.80
2018-09-11T14:50:34.087Z,26.80
2018-09-11T14:53:02.307Z,26.90
2018-09-11T14:55:30.834Z,26.90
2018-09-11T14:57:59.163Z,26.90
2018-09-11T15:00:27.486Z,27.00
2018-09-11T15:02:56.214Z,27.00
2018-09-11T15:05:24.548Z,27.00
2018-09-11T15:07:52.866Z,27.00
2018-09-11T15:10:21.204Z,27.00
2018-09-11T15:12:49.413Z,27.00
2018-09-11T15:15:17.703Z,26.90
2018-09-11T15:17:46.160Z,26.90
2018-09-11T15:20:14.751Z,26.90
2018-09-11T15:22:43.100Z,26.90
2018-09-11T15:25:11.459Z,26.90
2018-09-11T15:27:39.791Z,27.00
2018-09-11T15:30:08.077Z,27.10
2018-09-11T15:32:36.570Z,27.10
2018-09-11T15:35:04.883Z,27.00
2018-09-11T15:37:33.174Z,26.90
2018-09-11T15:40:01.448Z,26.80
2018-09-11T15:42:29.865Z,26.60
2018-09-11T15:44:58.163Z,26.40
2018-09-11T15:47:26.694Z,26.30
2018-09-11T15:49:54.905Z,26.20
2018-09-11T15:52:29.200Z,26.10
2018-09-11T15:54:57.458Z,26.00
2018-09-11T15:57:26.005Z,26.00
2018-09-11T15:59:54.471Z,25.80
2018-09-11T16:02:22.735Z,25.80
2018-09-11T16:04:51.000Z,25.70
2018-09-11T16:07:19.338Z,25.60
2018-09-11T16:09:47.630Z,25.50
2018-09-11T16:12:16.341Z,25.40
2018-09-11T16:14:44.688Z,25.30
2018-09-11T16:17:13.212Z,25.30
2018-09-11T16:19:41.447Z,25.20
2018-09-11T16:22:14.655Z,25.20
2018-09-11T16:24:42.823Z,25.00
2018-09-11T16:27:11.228Z,25.00
2018-09-11T16:29:39.577Z,24.90
2018-09-11T16:32:07.858Z,24.80
2018-09-11T16:34:36.376Z,24.80
2018-09-11T16:37:04.911Z,24.70
2018-09-11T16:42:25.489Z,24.60
2018-09-11T16:44:53.965Z,24.50
2018-09-11T16:47:22.265Z,24.40
2018-09-11T16:49:50.805Z,24.40
2018-09-11T16:52:19.179Z,24.30
2018-09-11T16:54:47.469Z,24.20
2018-09-11T16:57:15.857Z,24.20
2018-09-11T16:59:44.688Z,24.10
2018-09-11T17:02:13.177Z,24.10
2018-09-11T17:04:41.607Z,24.00
2018-09-11T17:07:10.095Z,23.90
2018-09-11T17:09:38.381Z,23.90
2018-09-11T17:12:06.898Z,23.80
2018-09-11T17:14:35.296Z,23.80
2018-09-11T17:17:03.689Z,23.70
2018-09-11T17:19:32.089Z,23.60
2018-09-11T17:22:00.493Z,23.60
2018-09-11T17:24:28.931Z,23.50
2018-09-11T17:26:57.260Z,23.40
2018-09-11T17:29:25.765Z,23.30
2018-09-11T17:31:54.029Z,23.20
2018-09-11T17:34:22.330Z,23.10
2018-09-11T17:36:50.925Z,23.10
2018-09-11T17:39:19.290Z,23.00
2018-09-11T17:41:52.678Z,22.90
2018-09-11T17:44:21.014Z,22.80
2018-09-11T17:46:50.713Z,22.70
2018-09-11T17:49:19.041Z,22.60
2018-09-11T17:51:47.704Z,22.60
2018-09-11T17:54:16.066Z,22.50
2018-09-11T17:56:44.431Z,22.40
2018-09-11T17:59:12.722Z,22.30
2018-09-11T18:01:41.046Z,22.20
2018-09-11T18:04:09.632Z,22.10
2018-09-11T18:06:38.280Z,22.00
2018-09-11T18:09:07.941Z,22.00
2018-09-11T18:11:38.902Z,21.90
2018-09-11T18:14:07.400Z,21.80
2018-09-11T18:16:35.898Z,21.70
2018-09-11T18:19:04.255Z,21.60
2018-09-11T18:21:32.847Z,21.50
2018-09-11T18:24:01.737Z,21.50
2018-09-11T18:26:30.216Z,21.40
2018-09-11T18:28:58.748Z,21.30
2018-09-11T18:31:27.176Z,21.30
2018-09-11T18:33:56.136Z,21.20
2018-09-11T18:36:24.617Z,21.20
2018-09-11T18:38:53.083Z,21.10
2018-09-11T18:41:21.520Z,21.00
2018-09-11T18:43:49.960Z,20.90
2018-09-11T18:46:18.529Z,20.90
2018-09-11T18:48:47.046Z,20.80
2018-09-11T18:51:15.592Z,20.80
2018-09-11T18:53:46.111Z,20.70
2018-09-11T18:56:14.492Z,20.60
2018-09-11T18:58:43.086Z,20.50
2018-09-11T19:01:11.536Z,20.50
2018-09-11T19:03:39.932Z,20.40
2018-09-11T19:06:08.455Z,20.40
2018-09-11T19:08:36.914Z,20.30
2018-09-11T19:11:05.401Z,20.20
2018-09-11T19:13:37.565Z,20.20
2018-09-11T19:16:05.951Z,20.20
2018-09-11T19:18:34.677Z,20.10
2018-09-11T19:21:03.153Z,20.00
2018-09-11T19:23:31.637Z,20.00
2018-09-11T19:26:00.104Z,19.90
2018-09-11T19:28:29.268Z,19.90
2018-09-11T19:30:57.755Z,19.90
2018-09-11T19:33:26.136Z,19.80
2018-09-11T19:35:54.672Z,19.70
2018-09-11T19:38:23.143Z,19.70
2018-09-11T19:40:51.633Z,19.70
2018-09-11T19:43:20.005Z,19.60
2018-09-11T19:45:48.420Z,19.60
2018-09-11T19:48:16.750Z,19.50
2018-09-11T19:50:45.661Z,19.50
2018-09-11T19:53:14.038Z,19.40
2018-09-11T19:55:42.417Z,19.40
2018-09-11T19:58:10.912Z,19.40
2018-09-11T20:00:39.633Z,19.40
2018-09-11T20:03:08.356Z,19.30
2018-09-11T20:05:36.950Z,19.30
2018-09-11T20:08:05.537Z,19.30
2018-09-11T20:10:33.948Z,19.20
2018-09-11T20:13:02.405Z,19.20
2018-09-11T20:15:34.519Z,19.10
2018-09-11T20:18:02.937Z,19.10
2018-09-11T20:20:31.370Z,19.00
2018-09-11T20:23:00.119Z,19.00
2018-09-11T20:25:28.502Z,18.90
2018-09-11T20:27:56.956Z,18.90
2018-09-11T20:30:25.415Z,18.80
2018-09-11T20:32:53.816Z,18.80
2018-09-11T20:35:22.136Z,18.70
2018-09-11T20:37:50.627Z,18.70
2018-09-11T20:40:19.156Z,18.60
2018-09-11T20:42:47.806Z,18.60
2018-09-11T20:45:16.326Z,18.60
2018-09-11T20:47:44.729Z,18.50
2018-09-11T20:50:13.420Z,18.50
2018-09-11T20:52:41.858Z,18.40
2018-09-11T20:55:10.176Z,18.40
2018-09-11T20:57:42.267Z,18.40
2018-09-11T21:00:10.650Z,18.40
2018-09-11T21:02:39.379Z,18.30
2018-09-11T21:05:08.040Z,18.30
2018-09-11T21:07:39.393Z,18.20
2018-09-11T21:10:08.049Z,18.20
2018-09-11T21:12:36.446Z,18.10
2018-09-11T21:15:05.184Z,18.10
2018-09-11T21:17:33.575Z,18.10
2018-09-11T21:20:02.116Z,18.00
2018-09-11T21:22:30.653Z,17.90
2018-09-11T21:24:59.047Z,17.90
2018-09-11T21:27:27.550Z,17.80
2018-09-11T21:29:55.932Z,17.80
2018-09-11T21:32:24.308Z,17.70
2018-09-11T21:34:52.579Z,17.70
2018-09-11T21:37:21.153Z,17.60
2018-09-11T21:39:49.539Z,17.50
2018-09-11T21:42:17.778Z,17.50
2018-09-11T21:44:46.238Z,17.50
2018-09-11T21:47:14.656Z,17.40
2018-09-11T21:49:43.240Z,17.40
2018-09-11T21:52:11.532Z,17.30
2018-09-11T21:54:40.337Z,17.20
2018-09-11T21:57:08.705Z,17.20
2018-09-11T21:59:37.080Z,17.20
2018-09-11T22:02:05.417Z,17.20
2018-09-11T22:04:33.745Z,17.10
2018-09-11T22:07:02.086Z,17.10
2018-09-11T22:09:30.729Z,17.10
2018-09-11T22:11:59.354Z,17.00
2018-09-11T22:14:27.685Z,17.00
2018-09-11T22:16:55.913Z,17.00
2018-09-11T22:19:24.365Z,16.90
2018-09-11T22:21:57.584Z,16.90
2018-09-11T22:24:26.032Z,16.80
2018-09-11T22:26:54.584Z,16.80
2018-09-11T22:29:22.937Z,16.80
2018-09-11T22:31:51.302Z,16.80
2018-09-11T22:34:19.720Z,16.70
2018-09-11T22:36:48.039Z,16.70
2018-09-11T22:39:16.610Z,16.70
2018-09-11T22:41:45.050Z,16.70
2018-09-11T22:44:13.370Z,16.60
2018-09-11T22:46:41.672Z,16.60
2018-09-11T22:49:10.187Z,16.60
2018-09-11T22:51:38.582Z,16.50
2018-09-11T22:54:06.875Z,16.50
2018-09-11T22:56:35.581Z,16.50
2018-09-11T22:59:04.170Z,16.50
2018-09-11T23:01:36.263Z,16.50
2018-09-11T23:04:04.517Z,16.40
2018-09-11T23:06:33.163Z,16.40
2018-09-11T23:09:01.466Z,16.30
2018-09-11T23:11:29.828Z,16.30
2018-09-11T23:13:58.508Z,16.20
2018-09-11T23:16:26.754Z,16.20
2018-09-11T23:18:55.234Z,16.20
2018-09-11T23:21:23.881Z,16.20
2018-09-11T23:23:52.602Z,16.10
2018-09-11T23:26:20.986Z,16.10
2018-09-11T23:28:49.910Z,16.10
2018-09-11T23:31:18.236Z,16.00
2018-09-11T23:33:46.558Z,16.00
2018-09-11T23:36:15.112Z,16.00
2018-09-11T23:38:43.744Z,16.00
2018-09-11T23:41:14.051Z,16.00
2018-09-11T23:43:42.800Z,16.00
2018-09-11T23:46:11.138Z,15.90
2018-09-11T23:48:39.458Z,15.90
2018-09-11T23:51:07.800Z,15.90
2018-09-11T23:53:36.100Z,15.80
2018-09-11T23:56:04.392Z,15.80
2018-09-11T23:58:32.792Z,15.80
